Time;durP1;ratioP1;P1;durP2;ratioP2;P2;SDS_P1;SDS_P2;PMS_P1;PMS_P2;Temp;Humidity;BMP_temperature;BMP_pressure;BME280_temperature;BME280_humidity;BME280_pressure;Samples;Min_cycle;Max_cycle;Signal;HPM_P1;HPM_P2
2023/08/30 00:02:16;;;;;;;19.55;12.25;;;21.00;60.90;;;;;;5046491;27;114889;-78
2023/08/30 00:04:43;;;;;;;32.35;18.50;;;21.10;60.70;;;;;;5046092;27;114635;-77
2023/08/30 00:07:10;;;;;;;27.15;15.55;;;21.10;60.60;;;;;;5045902;27;114240;-78
2023/08/30 00:09:38;;;;;;;34.35;20.65;;;20.90;60.80;;;;;;5047470;27;114376;-78
2023/08/30 00:12:05;;;;;;;21.38;13.80;;;20.90;61.00;;;;;;5046348;27;115548;-77
2023/08/30 00:14:32;;;;;;;22.95;15.48;;;20.80;61.20;;;;;;5045685;27;114617;-77
2023/08/30 00:16:59;;;;;;;23.63;16.25;;;20.80;61.30;;;;;;5046548;27;114209;-76
2023/08/30 00:19:26;;;;;;;25.60;16.17;;;20.80;61.20;;;;;;5047096;27;114506;-76
2023/08/30 00:21:53;;;;;;;20.75;13.90;;;21.00;61.00;;;;;;5045660;27;115120;-77
2023/08/30 00:24:20;;;;;;;29.25;17.48;;;21.00;60.90;;;;;;5045433;27;115111;-78
2023/08/30 00:26:48;;;;;;;18.25;12.18;;;21.00;60.90;;;;;;5046432;27;114292;-78
2023/08/30 00:29:15;;;;;;;20.15;12.63;;;20.80;61.00;;;;;;5047063;27;114092;-78
2023/08/30 00:31:42;;;;;;;14.80;9.40;;;20.80;61.10;;;;;;5027856;27;117620;-78
2023/08/30 00:34:09;;;;;;;14.15;9.50;;;20.80;61.20;;;;;;5011493;27;117360;-78
2023/08/30 00:36:36;;;;;;;19.90;12.20;;;20.80;61.10;;;;;;5045629;27;114338;-78
2023/08/30 00:39:03;;;;;;;23.17;14.35;;;20.80;61.10;;;;;;5046124;27;114346;-78
2023/08/30 00:41:30;;;;;;;31.02;16.10;;;20.70;61.20;;;;;;5043768;27;115530;-78
2023/08/30 00:43:58;;;;;;;27.20;15.20;;;20.70;61.20;;;;;;5044638;27;114709;-79
2023/08/30 00:46:25;;;;;;;35.28;19.30;;;20.60;61.30;;;;;;5028701;27;114396;-78
2023/08/30 00:48:52;;;;;;;20.15;11.77;;;20.50;61.30;;;;;;5046111;27;114465;-78
2023/08/30 00:51:19;;;;;;;31.45;16.65;;;20.40;61.80;;;;;;5045546;27;114766;-78
2023/08/30 00:53:47;;;;;;;31.65;15.23;;;20.40;61.60;;;;;;5044462;27;114767;-79
2023/08/30 00:56:15;;;;;;;16.08;10.63;;;20.30;61.80;;;;;;5045574;27;114497;-77
2023/08/30 00:58:44;;;;;;;14.90;10.10;;;20.30;62.10;;;;;;5046911;27;114158;-77
2023/08/30 01:01:13;;;;;;;23.83;15.15;;;20.30;62.20;;;;;;5044443;27;115026;-78
2023/08/30 01:03:41;;;;;;;19.80;10.85;;;20.40;61.90;;;;;;5045324;27;114618;-78
2023/08/30 01:06:08;;;;;;;15.65;10.48;;;20.50;61.80;;;;;;5044767;27;114153;-76
2023/08/30 01:08:37;;;;;;;12.93;8.40;;;20.60;61.70;;;;;;5046374;27;114146;-78
2023/08/30 01:11:28;;;;;;;13.77;8.68;;;20.70;61.60;;;;;;5044212;27;115043;-77
2023/08/30 01:14:35;;;;;;;13.45;9.43;;;20.80;61.20;;;;;;5043570;27;115059;-77
2023/08/30 01:17:18;;;;;;;20.70;12.45;;;21.00;60.80;;;;;;4964206;28;114327;-77
2023/08/30 01:19:50;;;;;;;15.23;9.60;;;21.00;60.70;;;;;;4990526;28;114377;-78
2023/08/30 01:22:42;;;;;;;13.38;8.68;;;21.00;60.50;;;;;;5005945;28;115445;-78
2023/08/30 01:25:19;;;;;;;34.08;19.33;;;21.10;60.40;;;;;;5007292;28;114823;-77
2023/08/30 01:27:47;;;;;;;21.90;12.35;;;21.10;60.20;;;;;;4974166;28;114638;-77
2023/08/30 01:30:15;;;;;;;16.05;9.90;;;21.10;60.20;;;;;;4973892;28;114185;-78
2023/08/30 01:32:42;;;;;;;22.88;14.15;;;21.10;60.10;;;;;;5022209;28;115120;-78
2023/08/30 01:35:09;;;;;;;14.45;8.95;;;21.10;59.80;;;;;;5005757;28;115346;-78
2023/08/30 01:37:38;;;;;;;26.73;16.25;;;21.20;59.90;;;;;;4990736;28;114203;-78
2023/08/30 01:40:07;;;;;;;18.77;12.43;;;21.10;59.60;;;;;;4990536;28;114132;-77
2023/08/30 01:42:34;;;;;;;22.08;13.98;;;21.00;59.90;;;;;;4989255;28;115155;-77
2023/08/30 01:45:02;;;;;;;21.77;14.50;;;20.90;59.70;;;;;;4989700;28;114759;-78
2023/08/30 01:47:29;;;;;;;13.63;9.23;;;20.80;59.90;;;;;;5006803;28;114201;-77
2023/08/30 01:49:57;;;;;;;16.20;10.60;;;20.80;60.30;;;;;;4990255;28;114406;-77
2023/08/30 01:52:24;;;;;;;26.70;15.27;;;20.80;60.30;;;;;;4989082;28;116103;-78
2023/08/30 01:54:51;;;;;;;13.38;9.02;;;20.80;59.80;;;;;;5037434;27;114629;-78
2023/08/30 01:57:18;;;;;;;19.95;13.27;;;20.70;60.30;;;;;;5043871;27;114559;-78
2023/08/30 01:59:45;;;;;;;12.45;8.07;;;20.70;60.30;;;;;;5045009;27;114358;-78
2023/08/30 02:02:12;;;;;;;14.80;10.23;;;20.70;60.60;;;;;;5013803;27;115482;-78
2023/08/30 02:04:39;;;;;;;11.43;7.57;;;20.80;60.50;;;;;;5048199;27;115371;-79
2023/08/30 02:07:22;;;;;;;11.10;7.30;;;20.80;60.40;;;;;;5048879;27;114242;-78
2023/08/30 02:10:12;;;;;;;15.10;9.90;;;20.90;60.20;;;;;;5048033;27;114417;-79
2023/08/30 02:12:49;;;;;;;14.68;7.78;;;21.00;59.80;;;;;;5030269;27;114194;-78
2023/08/30 02:15:16;;;;;;;10.95;6.82;;;21.00;59.90;;;;;;5013618;27;115787;-77
2023/08/30 02:17:43;;;;;;;9.98;6.88;;;20.90;60.00;;;;;;5047714;27;114314;-77
2023/08/30 02:20:11;;;;;;;12.27;8.00;;;21.00;60.00;;;;;;5014400;27;114708;-78
2023/08/30 02:22:38;;;;;;;12.80;8.27;;;21.00;59.80;;;;;;5029618;27;114925;-77
2023/08/30 02:25:07;;;;;;;16.25;9.90;;;21.10;59.50;;;;;;5047950;27;114897;-77
2023/08/30 02:27:35;;;;;;;16.52;9.55;;;21.00;59.40;;;;;;5048924;27;114667;-78
2023/08/30 02:30:02;;;;;;;11.68;6.93;;;21.00;59.30;;;;;;5047722;27;114296;-78
2023/08/30 02:32:31;;;;;;;11.93;6.30;;;21.00;59.60;;;;;;5046527;27;116525;-77
2023/08/30 02:34:58;;;;;;;11.57;6.82;;;21.00;59.60;;;;;;5047774;27;114551;-78
2023/08/30 02:37:25;;;;;;;13.68;9.25;;;21.00;59.60;;;;;;5047492;27;114134;-78
2023/08/30 02:39:52;;;;;;;9.70;6.53;;;21.00;59.30;;;;;;5031125;27;114121;-78
2023/08/30 02:42:19;;;;;;;17.50;12.40;;;21.00;59.50;;;;;;5029711;27;116096;-77
2023/08/30 02:44:46;;;;;;;10.75;7.03;;;21.00;59.10;;;;;;5047503;27;114674;-78
2023/08/30 02:47:13;;;;;;;11.52;6.88;;;21.00;59.40;;;;;;5046943;27;114637;-77
2023/08/30 02:49:40;;;;;;;10.18;6.10;;;21.00;59.50;;;;;;5048598;27;114047;-78
2023/08/30 02:52:08;;;;;;;9.95;6.25;;;21.00;59.50;;;;;;5047699;27;115411;-78
2023/08/30 02:54:35;;;;;;;8.88;6.10;;;21.10;59.40;;;;;;5047629;27;114856;-79
2023/08/30 02:57:02;;;;;;;13.10;8.90;;;21.10;59.30;;;;;;5048317;27;114118;-78
2023/08/30 02:59:29;;;;;;;10.13;6.28;;;21.20;59.10;;;;;;5048559;27;114155;-77
2023/08/30 03:02:02;;;;;;;12.30;9.33;;;21.10;59.10;;;;;;5046213;27;114902;-78
2023/08/30 03:04:29;;;;;;;11.30;9.00;;;21.10;59.00;;;;;;5046399;27;115856;-78
2023/08/30 03:06:56;;;;;;;11.32;7.47;;;21.10;58.90;;;;;;5046817;27;114410;-78
2023/08/30 03:09:26;;;;;;;7.97;5.45;;;21.20;58.90;;;;;;5013678;27;114261;-77
2023/08/30 03:11:53;;;;;;;8.90;5.70;;;21.20;59.00;;;;;;5045792;27;114927;-77
2023/08/30 03:14:21;;;;;;;9.23;6.07;;;21.20;58.90;;;;;;5045164;27;115175;-78
2023/08/30 03:16:49;;;;;;;12.05;9.20;;;21.20;58.80;;;;;;5047126;27;114365;-77
2023/08/30 03:19:17;;;;;;;9.50;6.68;;;21.20;58.50;;;;;;5047153;27;114155;-77
2023/08/30 03:21:44;;;;;;;10.15;7.65;;;21.20;58.60;;;;;;5046674;27;114877;-79
2023/08/30 03:24:13;;;;;;;12.65;9.85;;;21.20;58.60;;;;;;5045734;27;115162;-78
2023/08/30 03:26:42;;;;;;;9.90;7.35;;;21.20;58.40;;;;;;5046803;27;114310;-78
2023/08/30 03:29:11;;;;;;;13.35;9.65;;;21.10;58.50;;;;;;5047309;27;114125;-77
2023/08/30 03:31:38;;;;;;;8.05;5.88;;;21.10;58.60;;;;;;5046957;27;114996;-77
2023/08/30 03:34:05;;;;;;;10.38;7.80;;;21.10;58.80;;;;;;5046704;27;114665;-76
2023/08/30 03:36:32;;;;;;;10.18;6.45;;;21.10;58.60;;;;;;5029463;27;114446;-78
2023/08/30 03:38:59;;;;;;;7.97;6.65;;;21.20;58.70;;;;;;5046579;27;114265;-77
2023/08/30 03:41:26;;;;;;;9.93;7.15;;;21.20;58.70;;;;;;5046882;27;114885;-78
2023/08/30 03:43:54;;;;;;;8.43;5.60;;;21.20;58.50;;;;;;5045498;27;114661;-77
2023/08/30 03:46:21;;;;;;;8.85;6.18;;;21.20;58.60;;;;;;5047364;27;114314;-77
2023/08/30 03:48:48;;;;;;;8.27;5.63;;;21.10;58.60;;;;;;5046305;27;114258;-76
2023/08/30 03:51:16;;;;;;;9.30;6.40;;;21.10;58.60;;;;;;5046700;27;115093;-76
2023/08/30 03:53:44;;;;;;;7.40;4.93;;;21.20;58.40;;;;;;5046719;27;114666;-78
2023/08/30 03:56:11;;;;;;;8.18;5.80;;;21.20;58.50;;;;;;5046304;27;114350;-77
2023/08/30 03:58:38;;;;;;;11.15;6.25;;;21.20;58.40;;;;;;5046287;27;114282;-77
2023/08/30 04:01:06;;;;;;;13.27;7.43;;;21.20;58.30;;;;;;5046021;27;114885;-76
2023/08/30 04:03:34;;;;;;;9.68;7.13;;;21.20;58.20;;;;;;5046178;27;114887;-77
2023/08/30 04:06:01;;;;;;;8.13;6.03;;;21.20;58.20;;;;;;5047495;27;114302;-78
2023/08/30 04:08:28;;;;;;;9.45;6.10;;;21.20;58.30;;;;;;5047349;27;114342;-77
2023/08/30 04:10:55;;;;;;;8.70;5.90;;;21.20;58.30;;;;;;5046293;27;114552;-77
2023/08/30 04:13:23;;;;;;;12.40;8.10;;;21.10;58.30;;;;;;5045919;27;115416;-78
2023/08/30 04:15:50;;;;;;;9.13;6.18;;;21.10;58.20;;;;;;5046850;27;114463;-78
2023/08/30 04:18:17;;;;;;;7.60;4.43;;;21.10;58.40;;;;;;5029586;27;114372;-77
2023/08/30 04:20:45;;;;;;;7.43;4.50;;;21.00;58.60;;;;;;5045988;27;116065;-78
2023/08/30 04:23:12;;;;;;;6.05;4.30;;;21.00;58.60;;;;;;5046183;27;114957;-78
2023/08/30 04:25:40;;;;;;;8.35;4.93;;;21.00;58.60;;;;;;5045075;27;114471;-78
2023/08/30 04:28:07;;;;;;;7.35;5.65;;;21.00;58.50;;;;;;5045545;27;114329;-78
2023/08/30 04:30:37;;;;;;;5.57;3.70;;;21.00;58.20;;;;;;5045896;27;114953;-78
2023/08/30 04:33:05;;;;;;;6.97;4.22;;;21.10;58.50;;;;;;5028014;27;114747;-77
2023/08/30 04:35:33;;;;;;;6.15;4.53;;;21.10;58.40;;;;;;5012494;27;114105;-77
2023/08/30 04:38:00;;;;;;;7.82;5.30;;;21.10;58.10;;;;;;5045630;27;114439;-76
2023/08/30 04:40:29;;;;;;;5.63;3.65;;;21.10;57.80;;;;;;5028013;27;116450;-77
2023/08/30 04:42:57;;;;;;;6.80;4.75;;;21.00;58.20;;;;;;5044952;27;114739;-76
2023/08/30 04:45:24;;;;;;;7.28;5.32;;;21.10;58.10;;;;;;5028677;27;114082;-78
2023/08/30 04:47:52;;;;;;;4.70;3.10;;;21.00;57.90;;;;;;5046726;27;114224;-78
2023/08/30 04:50:20;;;;;;;5.28;3.30;;;21.00;58.30;;;;;;5043776;27;114871;-79
2023/08/30 04:52:47;;;;;;;5.63;3.42;;;21.00;58.30;;;;;;5044423;27;114743;-76
2023/08/30 04:55:14;;;;;;;4.47;3.40;;;21.10;58.20;;;;;;5045559;27;114232;-77
2023/08/30 04:57:44;;;;;;;6.68;4.57;;;21.10;58.20;;;;;;5012276;27;114259;-78
2023/08/30 05:00:14;;;;;;;6.10;4.82;;;21.10;58.20;;;;;;5028285;27;114929;-78
2023/08/30 05:02:43;;;;;;;5.40;4.53;;;21.00;58.10;;;;;;5027719;27;114675;-78
2023/08/30 05:05:11;;;;;;;5.88;4.82;;;21.10;58.10;;;;;;5045259;27;114277;-78
2023/08/30 05:07:38;;;;;;;8.43;5.15;;;21.10;57.90;;;;;;5045589;27;114274;-77
2023/08/30 05:10:06;;;;;;;5.82;4.50;;;21.00;57.70;;;;;;5044178;27;115412;-78
2023/08/30 05:12:34;;;;;;;5.55;3.53;;;21.00;58.00;;;;;;5045463;27;115011;-78
2023/08/30 05:15:01;;;;;;;5.28;3.60;;;21.00;58.30;;;;;;5027330;27;114375;-78
2023/08/30 05:17:29;;;;;;;4.60;3.35;;;20.90;58.30;;;;;;5028617;27;114199;-78
2023/08/30 05:19:57;;;;;;;4.57;3.35;;;21.00;58.20;;;;;;5027382;27;115497;-79
2023/08/30 05:22:24;;;;;;;4.63;3.38;;;21.00;58.20;;;;;;5045336;27;114943;-78
2023/08/30 05:24:51;;;;;;;5.32;3.53;;;21.00;58.10;;;;;;5046047;27;114310;-79
2023/08/30 05:27:22;;;;;;;6.38;4.97;;;21.10;57.90;;;;;;5012162;27;114539;-78
2023/08/30 05:29:49;;;;;;;6.90;5.13;;;20.90;57.50;;;;;;5043764;27;114895;-78
2023/08/30 05:32:16;;;;;;;6.88;4.65;;;20.80;57.80;;;;;;5027388;27;116020;-78
2023/08/30 05:35:03;;;;;;;4.22;3.00;;;20.70;58.40;;;;;;5045347;27;114322;-78
2023/08/30 05:38:05;;;;;;;5.65;4.40;;;20.60;58.80;;;;;;5048477;27;114593;-78
2023/08/30 05:41:05;;;;;;;7.28;4.10;;;20.60;58.70;;;;;;5024650;27;114943;-78
2023/08/30 05:43:32;;;;;;;5.80;3.72;;;20.60;58.80;;;;;;5048498;27;114583;-79
2023/08/30 05:46:02;;;;;;;5.18;3.70;;;20.70;58.70;;;;;;5048053;27;114390;-78
2023/08/30 05:48:30;;;;;;;5.65;3.85;;;20.60;58.50;;;;;;5049540;27;114146;-78
2023/08/30 05:50:57;;;;;;;7.20;5.85;;;20.60;58.70;;;;;;5047230;27;114803;-78
2023/08/30 05:53:24;;;;;;;5.35;3.20;;;20.60;58.60;;;;;;5047328;27;114627;-78
2023/08/30 05:55:51;;;;;;;6.07;5.00;;;20.70;58.80;;;;;;5049610;27;114116;-78
2023/08/30 05:58:19;;;;;;;8.40;5.70;;;20.70;58.70;;;;;;5049675;27;114407;-79
2023/08/30 06:00:46;;;;;;;4.55;3.42;;;20.80;58.60;;;;;;5052594;27;114182;-78
2023/08/30 06:03:13;;;;;;;7.50;6.10;;;20.80;58.50;;;;;;5046956;27;114616;-78
2023/08/30 06:05:42;;;;;;;4.57;3.03;;;20.80;58.20;;;;;;5048765;27;114255;-79
2023/08/30 06:08:09;;;;;;;4.82;3.03;;;20.80;58.60;;;;;;5047842;27;114219;-78
2023/08/30 06:10:38;;;;;;;5.85;3.67;;;20.80;58.50;;;;;;5046971;27;114860;-79
2023/08/30 06:13:05;;;;;;;5.20;3.35;;;20.80;58.40;;;;;;5047738;27;114546;-78
2023/08/30 06:15:33;;;;;;;5.15;3.95;;;20.90;58.30;;;;;;5049149;27;114100;-79
2023/08/30 06:18:00;;;;;;;5.95;3.95;;;20.80;57.90;;;;;;5048750;27;114241;-78
2023/08/30 06:20:27;;;;;;;3.80;2.70;;;20.90;58.00;;;;;;5046438;27;116323;-78
2023/08/30 06:22:54;;;;;;;5.78;3.00;;;20.90;58.10;;;;;;5048245;27;114580;-78
2023/08/30 06:25:21;;;;;;;4.25;2.72;;;20.90;58.10;;;;;;5047788;27;114500;-79
2023/08/30 06:27:59;;;;;;;4.10;2.80;;;21.00;57.90;;;;;;5048935;27;113983;-77
2023/08/30 06:30:26;;;;;;;6.28;4.00;;;21.10;57.70;;;;;;5046288;27;114919;-78
2023/08/30 06:32:53;;;;;;;3.75;2.42;;;21.10;57.40;;;;;;5047909;27;114741;-78
2023/08/30 06:35:21;;;;;;;3.50;2.53;;;21.00;57.70;;;;;;5047507;27;114176;-77
2023/08/30 06:37:48;;;;;;;3.85;2.08;;;21.10;57.70;;;;;;5048588;27;114330;-77
2023/08/30 06:40:16;;;;;;;3.60;1.92;;;21.10;57.80;;;;;;5047723;27;114972;-77
2023/08/30 06:42:43;;;;;;;4.05;2.42;;;21.10;57.70;;;;;;5047859;27;114964;-78
2023/08/30 06:45:11;;;;;;;6.55;3.47;;;21.10;57.50;;;;;;5048823;27;114095;-79
2023/08/30 06:47:38;;;;;;;4.50;2.30;;;21.10;57.30;;;;;;5050700;27;114331;-78
2023/08/30 06:50:06;;;;;;;8.05;4.03;;;21.00;57.50;;;;;;5047605;27;115034;-77
2023/08/30 06:52:33;;;;;;;5.35;2.97;;;20.90;57.60;;;;;;5013155;27;115187;-77
2023/08/30 06:55:00;;;;;;;3.88;2.15;;;20.90;57.60;;;;;;5046827;27;114122;-78
2023/08/30 06:57:27;;;;;;;3.85;2.20;;;20.90;57.80;;;;;;5048533;27;114123;-79
2023/08/30 06:59:54;;;;;;;3.88;2.28;;;21.00;57.80;;;;;;5029401;27;118226;-79
2023/08/30 07:02:21;;;;;;;4.00;2.85;;;21.00;57.80;;;;;;5047263;27;115789;-79
2023/08/30 07:04:48;;;;;;;4.15;2.58;;;21.00;57.60;;;;;;5048135;27;114215;-78
2023/08/30 07:07:15;;;;;;;4.32;3.03;;;21.00;57.60;;;;;;5047926;27;114042;-79
2023/08/30 07:09:42;;;;;;;7.10;3.35;;;21.00;57.70;;;;;;5047283;27;114915;-79
2023/08/30 07:12:10;;;;;;;4.43;2.83;;;21.00;57.70;;;;;;5047463;27;114763;-78
2023/08/30 07:14:39;;;;;;;6.03;2.80;;;20.90;57.90;;;;;;5047502;27;114297;-77
2023/08/30 07:17:07;;;;;;;5.00;3.22;;;20.90;57.90;;;;;;5046845;27;114336;-78
2023/08/30 07:19:34;;;;;;;4.13;2.65;;;21.00;57.80;;;;;;5045375;27;116390;-78
2023/08/30 07:22:01;;;;;;;4.38;2.55;;;20.90;57.90;;;;;;5045778;27;114918;-79
2023/08/30 07:24:31;;;;;;;3.55;2.30;;;20.80;58.10;;;;;;5047839;27;114294;-79
2023/08/30 07:26:58;;;;;;;4.50;2.85;;;20.80;58.20;;;;;;5047932;27;114203;-75
2023/08/30 07:29:25;;;;;;;4.47;3.22;;;20.90;58.10;;;;;;5047018;27;114932;-79
2023/08/30 07:31:54;;;;;;;5.18;3.42;;;20.90;58.10;;;;;;5045658;27;117508;-78
2023/08/30 07:34:24;;;;;;;7.95;5.45;;;20.90;57.90;;;;;;5046166;27;114212;-78
2023/08/30 07:36:54;;;;;;;6.75;4.28;;;20.90;58.20;;;;;;5046839;27;114333;-80
2023/08/30 07:39:21;;;;;;;6.25;3.60;;;20.80;58.30;;;;;;5028643;27;116548;-77
2023/08/30 07:41:48;;;;;;;5.50;3.60;;;20.70;58.50;;;;;;5046694;27;114689;-78
2023/08/30 07:44:17;;;;;;;7.28;3.90;;;20.60;58.60;;;;;;5047032;27;114226;-78
2023/08/30 07:46:44;;;;;;;4.95;3.10;;;20.70;58.50;;;;;;5046565;27;114454;-79
2023/08/30 07:49:11;;;;;;;5.15;3.40;;;20.70;58.50;;;;;;5046505;27;115078;-78
2023/08/30 07:51:41;;;;;;;8.63;6.10;;;20.70;58.60;;;;;;5046622;27;114767;-79
2023/08/30 07:54:09;;;;;;;8.38;6.15;;;20.80;58.50;;;;;;5047192;27;114193;-78
2023/08/30 07:56:36;;;;;;;13.13;9.00;;;20.80;58.10;;;;;;5012908;27;114645;-78
2023/08/30 07:59:03;;;;;;;7.82;5.25;;;20.80;58.30;;;;;;5046083;27;114845;-78
2023/08/30 08:01:30;;;;;;;7.03;4.88;;;20.80;58.00;;;;;;5045694;27;114731;-79
2023/08/30 08:03:57;;;;;;;8.38;5.90;;;20.70;58.40;;;;;;5045936;27;114458;-78
2023/08/30 08:06:34;;;;;;;6.55;3.75;;;20.80;58.40;;;;;;5030507;27;114408;-79
2023/08/30 08:09:04;;;;;;;4.82;3.50;;;20.80;58.40;;;;;;5027832;27;117487;-79
2023/08/30 08:11:32;;;;;;;5.75;3.80;;;20.80;58.50;;;;;;5045153;27;114867;-78
2023/08/30 08:13:59;;;;;;;7.80;4.03;;;20.80;58.10;;;;;;5045352;27;114815;-78
2023/08/30 08:16:27;;;;;;;7.07;5.40;;;20.80;58.30;;;;;;5047029;27;114248;-79
2023/08/30 08:18:54;;;;;;;5.70;4.60;;;20.80;58.40;;;;;;5045040;27;114917;-78
2023/08/30 08:21:24;;;;;;;6.72;4.28;;;20.80;58.50;;;;;;5044564;27;115334;-79
2023/08/30 08:23:52;;;;;;;7.88;6.53;;;20.90;58.50;;;;;;5046958;27;114428;-79
2023/08/30 08:26:19;;;;;;;6.72;4.90;;;20.90;58.30;;;;;;5047290;27;114266;-78
2023/08/30 08:28:46;;;;;;;5.65;4.45;;;20.90;58.20;;;;;;5045998;27;114820;-78
2023/08/30 08:31:17;;;;;;;6.20;4.15;;;20.80;58.20;;;;;;5046079;27;114626;-78
2023/08/30 08:33:44;;;;;;;5.22;4.10;;;20.80;58.30;;;;;;5046788;27;114019;-79
2023/08/30 08:36:11;;;;;;;5.82;4.28;;;20.80;58.20;;;;;;5046807;27;114069;-79
2023/08/30 08:38:38;;;;;;;7.28;4.18;;;20.90;58.10;;;;;;5045793;27;114809;-77
2023/08/30 08:41:07;;;;;;;5.90;3.95;;;20.90;57.80;;;;;;5045894;27;114603;-79
2023/08/30 08:43:36;;;;;;;6.38;4.15;;;21.00;58.00;;;;;;5012004;27;114336;-79
2023/08/30 08:46:06;;;;;;;5.38;4.38;;;21.00;57.80;;;;;;5045416;27;114344;-78
2023/08/30 08:48:35;;;;;;;6.50;4.05;;;21.00;57.70;;;;;;5045827;27;114756;-78
2023/08/30 08:51:02;;;;;;;7.22;3.90;;;21.10;57.60;;;;;;5027740;27;115769;-80
2023/08/30 08:53:29;;;;;;;6.53;3.60;;;21.00;57.60;;;;;;5030335;27;114147;-79
2023/08/30 08:55:56;;;;;;;4.88;3.45;;;21.00;57.80;;;;;;5047505;27;114247;-79
2023/08/30 08:58:24;;;;;;;6.65;3.65;;;21.10;57.50;;;;;;5027350;27;115004;-79
2023/08/30 09:00:51;;;;;;;5.82;3.55;;;21.10;57.40;;;;;;5045908;27;114645;-79
2023/08/30 09:03:18;;;;;;;5.95;3.42;;;21.10;57.30;;;;;;5046404;27;114452;-79
2023/08/30 09:05:46;;;;;;;6.85;4.20;;;21.10;57.30;;;;;;5047781;27;114186;-78
2023/08/30 09:08:13;;;;;;;5.97;4.13;;;21.00;57.00;;;;;;5045428;27;116199;-79
2023/08/30 09:10:41;;;;;;;6.75;4.60;;;20.90;57.30;;;;;;5044673;27;114783;-78
2023/08/30 09:13:08;;;;;;;7.57;4.97;;;20.80;57.90;;;;;;5027739;27;114405;-78
2023/08/30 09:15:39;;;;;;;7.70;4.93;;;20.70;58.00;;;;;;5048054;27;113994;-79
2023/08/30 09:18:16;;;;;;;10.40;7.00;;;20.70;58.00;;;;;;5047606;27;116720;-77
2023/08/30 09:20:44;;;;;;;7.95;6.35;;;20.70;58.30;;;;;;5026813;27;114604;-78
2023/08/30 09:23:21;;;;;;;7.57;6.35;;;20.60;58.30;;;;;;5027726;27;114355;-78
2023/08/30 09:25:53;;;;;;;7.00;5.53;;;20.50;58.40;;;;;;5044995;27;114226;-78
2023/08/30 09:28:21;;;;;;;8.80;6.60;;;20.30;59.10;;;;;;5043785;27;115869;-79
2023/08/30 09:30:51;;;;;;;8.98;5.70;;;20.30;59.20;;;;;;5044929;27;114667;-78
2023/08/30 09:33:34;;;;;;;6.25;5.32;;;20.30;59.20;;;;;;5046123;27;114131;-79
2023/08/30 09:36:01;;;;;;;7.75;6.00;;;20.20;59.40;;;;;;5045844;27;114471;-78
2023/08/30 09:38:31;;;;;;;8.35;5.70;;;20.20;59.90;;;;;;5043910;27;114918;-79
2023/08/30 09:41:05;;;;;;;8.52;6.10;;;20.20;59.90;;;;;;5045112;27;114616;-78
2023/08/30 09:43:33;;;;;;;8.27;5.53;;;20.30;59.70;;;;;;5044950;27;114449;-79
2023/08/30 09:46:06;;;;;;;10.10;5.90;;;20.20;59.20;;;;;;5044566;27;114436;-79
2023/08/30 09:48:33;;;;;;;8.00;5.87;;;20.20;59.90;;;;;;5026621;27;115036;-78
2023/08/30 09:51:00;;;;;;;6.93;5.47;;;20.20;60.10;;;;;;5043689;27;114716;-79
2023/08/30 09:53:27;;;;;;;7.65;5.85;;;20.20;60.00;;;;;;5044692;27;114169;-78
2023/08/30 09:55:56;;;;;;;9.02;5.85;;;20.30;60.00;;;;;;5044408;27;114444;-78
2023/08/30 09:58:27;;;;;;;8.05;6.15;;;20.20;59.90;;;;;;5045022;27;114895;-78
2023/08/30 10:00:54;;;;;;;6.25;5.18;;;20.30;60.00;;;;;;5043983;27;115835;-77
2023/08/30 10:03:21;;;;;;;7.13;5.60;;;20.30;60.00;;;;;;5045734;27;114172;-77
2023/08/30 10:05:58;;;;;;;7.00;5.45;;;20.40;59.70;;;;;;5029503;27;114471;-78
2023/08/30 10:08:29;;;;;;;6.32;5.53;;;20.50;59.50;;;;;;5043472;27;115233;-79
2023/08/30 10:10:58;;;;;;;5.88;4.72;;;20.50;59.40;;;;;;4993928;27;117281;-77
2023/08/30 10:13:25;;;;;;;8.02;6.10;;;20.50;59.20;;;;;;5046435;27;114318;-77
2023/08/30 10:15:56;;;;;;;5.88;4.78;;;20.40;59.60;;;;;;5045923;27;114715;-77
2023/08/30 10:18:23;;;;;;;6.10;5.13;;;20.50;59.70;;;;;;5027201;27;114909;-78
2023/08/30 10:20:50;;;;;;;7.30;5.25;;;20.60;59.50;;;;;;5043344;27;114600;-79
2023/08/30 10:23:17;;;;;;;6.00;4.63;;;20.70;59.20;;;;;;5049021;27;114342;-78
2023/08/30 10:25:44;;;;;;;6.75;5.28;;;20.70;59.10;;;;;;5047657;27;114406;-78
2023/08/30 10:28:12;;;;;;;7.68;4.57;;;20.70;58.90;;;;;;5047908;27;115095;-79
2023/08/30 10:30:39;;;;;;;7.55;4.82;;;20.60;58.40;;;;;;5046779;27;114629;-78
2023/08/30 10:33:17;;;;;;;6.05;4.40;;;20.50;59.00;;;;;;5030509;27;114134;-79
2023/08/30 10:35:49;;;;;;;5.30;4.15;;;20.50;59.20;;;;;;5031244;27;114106;-78
2023/08/30 10:38:26;;;;;;;6.38;4.03;;;20.40;59.00;;;;;;5032746;27;116374;-78
2023/08/30 10:40:54;;;;;;;7.93;4.10;;;20.30;58.90;;;;;;5047845;27;115171;-78
2023/08/30 10:43:31;;;;;;;6.55;3.90;;;20.20;59.80;;;;;;5047522;27;114343;-79
2023/08/30 10:46:06;;;;;;;5.85;3.67;;;20.10;59.70;;;;;;5047466;27;114274;-79
2023/08/30 10:48:35;;;;;;;5.47;3.70;;;20.00;59.80;;;;;;5046434;27;115386;-79
2023/08/30 10:51:04;;;;;;;5.90;4.78;;;19.90;60.10;;;;;;5047618;27;114841;-78
2023/08/30 10:53:32;;;;;;;5.13;3.65;;;19.80;59.90;;;;;;5047127;27;114443;-79
2023/08/30 10:56:03;;;;;;;5.05;3.60;;;19.80;60.40;;;;;;5048900;27;114285;-79
2023/08/30 10:58:40;;;;;;;4.70;3.28;;;19.80;60.40;;;;;;5047252;27;116062;-78
2023/08/30 11:01:09;;;;;;;5.63;3.92;;;19.80;60.70;;;;;;5047427;27;115016;-77
2023/08/30 11:03:36;;;;;;;6.93;3.80;;;19.80;60.60;;;;;;5048080;27;114175;-77
2023/08/30 11:06:03;;;;;;;6.78;3.90;;;19.80;60.60;;;;;;5047151;27;114279;-79
2023/08/30 11:08:30;;;;;;;7.78;4.30;;;19.80;60.20;;;;;;5047068;27;116180;-79
2023/08/30 11:11:04;;;;;;;6.30;4.18;;;19.90;60.30;;;;;;5046233;27;114709;-77
2023/08/30 11:13:31;;;;;;;5.25;3.60;;;19.90;60.30;;;;;;5046641;27;114326;-78
2023/08/30 11:16:03;;;;;;;5.75;3.00;;;19.90;60.30;;;;;;5048246;27;114365;-78
2023/08/30 11:18:33;;;;;;;4.22;2.70;;;20.00;60.20;;;;;;5048053;27;114887;-78
2023/08/30 11:21:01;;;;;;;4.47;3.28;;;20.00;59.50;;;;;;5046204;27;114689;-78
2023/08/30 11:23:28;;;;;;;5.40;3.28;;;19.90;59.40;;;;;;5030435;27;114222;-78
2023/08/30 11:25:56;;;;;;;6.07;3.25;;;19.90;60.00;;;;;;5047718;27;114255;-78
2023/08/30 11:28:26;;;;;;;5.53;3.58;;;19.90;59.80;;;;;;5046602;27;114840;-77
2023/08/30 11:30:56;;;;;;;4.90;2.50;;;19.90;59.80;;;;;;5047032;27;114602;-77
2023/08/30 11:33:23;;;;;;;4.63;2.65;;;20.00;60.10;;;;;;5047211;27;114350;-77
2023/08/30 11:35:51;;;;;;;5.50;3.17;;;20.10;59.90;;;;;;5047890;27;114214;-78
2023/08/30 11:38:19;;;;;;;4.95;2.50;;;20.30;59.60;;;;;;5046715;27;115235;-77
2023/08/30 11:40:49;;;;;;;4.78;2.67;;;20.30;59.30;;;;;;5045154;27;116351;-78
2023/08/30 11:43:16;;;;;;;6.00;2.83;;;20.50;59.10;;;;;;5046558;27;114470;-78
2023/08/30 11:45:43;;;;;;;5.68;2.95;;;20.60;58.70;;;;;;5048087;27;114266;-78
2023/08/30 11:48:10;;;;;;;6.82;3.22;;;20.70;58.20;;;;;;5049778;27;116716;-78
2023/08/30 11:50:38;;;;;;;5.72;3.28;;;20.80;58.40;;;;;;5029535;27;114082;-78
2023/08/30 11:53:15;;;;;;;5.38;3.08;;;20.80;58.20;;;;;;5047121;27;114053;-78
2023/08/30 11:55:42;;;;;;;6.78;3.78;;;20.80;57.80;;;;;;5046363;27;114257;-78
2023/08/30 11:58:09;;;;;;;6.40;3.65;;;20.80;58.00;;;;;;5028484;27;116384;-78
2023/08/30 12:01:11;;;;;;;5.78;2.90;;;20.80;58.10;;;;;;4981016;28;114598;-79
2023/08/30 12:03:39;;;;;;;5.30;2.72;;;20.80;57.80;;;;;;5030073;27;114473;-77
2023/08/30 12:06:12;;;;;;;5.90;3.30;;;20.80;57.60;;;;;;5012629;27;114935;-78
2023/08/30 12:08:39;;;;;;;6.20;3.40;;;20.80;57.70;;;;;;5045166;27;119364;-78
2023/08/30 12:11:16;;;;;;;6.78;4.18;;;20.80;57.60;;;;;;5045633;27;115099;-79
2023/08/30 12:13:43;;;;;;;4.88;2.83;;;20.80;57.80;;;;;;5046899;27;114259;-78
2023/08/30 12:16:15;;;;;;;5.18;3.42;;;20.80;57.80;;;;;;5046074;27;114333;-78
2023/08/30 12:18:42;;;;;;;5.70;3.38;;;20.80;57.80;;;;;;5044480;27;117875;-79
2023/08/30 12:21:09;;;;;;;6.43;3.65;;;20.80;57.80;;;;;;5045640;27;115305;-79
2023/08/30 12:23:36;;;;;;;6.70;4.05;;;20.90;57.60;;;;;;5046948;27;114203;-77
2023/08/30 12:26:10;;;;;;;8.90;3.60;;;20.90;57.60;;;;;;5046235;27;114323;-78
2023/08/30 12:28:38;;;;;;;3.92;2.22;;;20.80;57.30;;;;;;5044808;27;115001;-78
2023/08/30 12:31:09;;;;;;;5.43;3.13;;;20.80;57.30;;;;;;5044704;27;114554;-77
2023/08/30 12:33:36;;;;;;;4.88;3.10;;;20.70;57.80;;;;;;5029512;27;114065;-77
2023/08/30 12:36:03;;;;;;;6.25;3.70;;;20.70;58.00;;;;;;5046221;27;114321;-78
2023/08/30 12:38:31;;;;;;;4.70;2.67;;;20.70;57.90;;;;;;5044834;27;115436;-78
2023/08/30 12:40:58;;;;;;;5.03;3.22;;;20.70;57.80;;;;;;5045544;27;116244;-78
2023/08/30 12:43:25;;;;;;;5.00;3.47;;;20.60;57.80;;;;;;5045994;27;114265;-79